Time;durP1;ratioP1;P1;durP2;ratioP2;P2;SDS_P1;SDS_P2;PMS_P1;PMS_P2;Temp;Humidity;BMP_temperature;BMP_pressure;BME280_temperature;BME280_humidity;BME280_pressure;Samples;Min_cycle;Max_cycle;Signal;HPM_P1;HPM_P2
2023/06/10 00:00:48;;;;;;;;;;;21.30;49.90;;;;;;5052681;28;20007;-71
2023/06/10 00:03:14;;;;;;;;;;;21.30;49.90;;;;;;5051874;28;20436;-72
2023/06/10 00:05:39;;;;;;;;;;;21.30;49.80;;;;;;5037031;28;19960;-73
2023/06/10 00:08:08;;;;;;;;;;;21.20;49.60;;;;;;5052257;28;20009;-72
2023/06/10 00:10:38;;;;;;;;;;;21.20;49.50;;;;;;5052211;28;19945;-72
2023/06/10 00:13:04;;;;;;;;;;;21.10;49.30;;;;;;5052109;28;20418;-72
2023/06/10 00:15:30;;;;;;;;;;;21.00;49.20;;;;;;5052055;28;19916;-71
2023/06/10 00:17:56;;;;;;;;;;;21.00;49.00;;;;;;5052044;28;19917;-71
2023/06/10 00:20:25;;;;;;;;;;;20.80;48.90;;;;;;5052369;28;19935;-72
2023/06/10 00:22:52;;;;;;;;;;;20.80;49.20;;;;;;5051875;28;19917;-72
2023/06/10 00:25:17;;;;;;;;;;;20.70;49.40;;;;;;5050872;28;19912;-71
2023/06/10 00:27:43;;;;;;;;;;;20.60;49.50;;;;;;5051960;28;19990;-71
2023/06/10 00:30:08;;;;;;;;;;;20.50;49.90;;;;;;5051824;28;19970;-71
2023/06/10 00:32:35;;;;;;;;;;;20.50;49.60;;;;;;5050841;28;19916;-71
2023/06/10 00:35:01;;;;;;;;;;;20.40;49.60;;;;;;5051900;28;19932;-71
2023/06/10 00:37:27;;;;;;;;;;;20.30;49.60;;;;;;5069399;28;19912;-72
2023/06/10 00:39:52;;;;;;;;;;;20.30;49.70;;;;;;5071983;28;19908;-71
2023/06/10 00:42:18;;;;;;;;;;;20.20;50.00;;;;;;5057214;28;19927;-71
2023/06/10 00:44:43;;;;;;;;;;;20.20;49.90;;;;;;5051955;28;19920;-71
2023/06/10 00:47:08;;;;;;;;;;;20.10;50.00;;;;;;5051421;28;19916;-71
2023/06/10 00:49:34;;;;;;;;;;;20.10;50.20;;;;;;5050401;28;19921;-71
2023/06/10 00:52:00;;;;;;;;;;;20.00;50.10;;;;;;5051603;28;19931;-72
2023/06/10 00:54:26;;;;;;;;;;;20.00;50.50;;;;;;5052244;28;20011;-71
2023/06/10 00:56:52;;;;;;;;;;;19.90;50.80;;;;;;5053993;28;20364;-71
2023/06/10 00:59:18;;;;;;;;;;;19.90;50.80;;;;;;5056010;28;19917;-71
2023/06/10 01:01:46;;;;;;;;;;;19.80;51.20;;;;;;5055605;28;19995;-75
2023/06/10 01:04:12;;;;;;;;;;;19.80;51.20;;;;;;5055552;28;19943;-75
2023/06/10 01:06:38;;;;;;;;;;;19.90;51.30;;;;;;5055154;28;19909;-76
2023/06/10 01:09:13;;;;;;;;;;;19.80;51.40;;;;;;5055452;28;19917;-76
2023/06/10 01:11:51;;;;;;;;;;;19.80;51.80;;;;;;5055054;28;20000;-76
2023/06/10 01:14:17;;;;;;;;;;;19.70;52.10;;;;;;5055410;28;19924;-76
2023/06/10 01:16:45;;;;;;;;;;;19.70;52.20;;;;;;5054823;28;19912;-75
2023/06/10 01:19:17;;;;;;;;;;;19.70;52.40;;;;;;5054890;28;19917;-76
2023/06/10 01:21:48;;;;;;;;;;;19.60;52.20;;;;;;5054635;28;19909;-76
2023/06/10 01:24:14;;;;;;;;;;;19.50;51.90;;;;;;5074640;28;19995;-76
2023/06/10 01:26:41;;;;;;;;;;;19.50;52.00;;;;;;5070547;28;20396;-76
2023/06/10 01:29:11;;;;;;;;;;;19.40;51.80;;;;;;5055071;28;20330;-75
2023/06/10 01:31:41;;;;;;;;;;;19.30;51.80;;;;;;5054714;28;19916;-76
2023/06/10 01:34:08;;;;;;;;;;;19.30;51.70;;;;;;5054986;28;19916;-76
2023/06/10 01:36:34;;;;;;;;;;;19.20;51.70;;;;;;5064870;28;19908;-75
2023/06/10 01:39:00;;;;;;;;;;;19.10;52.00;;;;;;5074809;28;19916;-76
2023/06/10 01:41:26;;;;;;;;;;;19.10;52.20;;;;;;5074613;28;19995;-76
2023/06/10 01:43:51;;;;;;;;;;;19.10;52.20;;;;;;5074607;28;20705;-75
2023/06/10 01:46:21;;;;;;;;;;;19.00;52.60;;;;;;5074480;28;19915;-76
2023/06/10 01:48:46;;;;;;;;;;;19.00;52.40;;;;;;5066678;28;19924;-77
2023/06/10 01:51:12;;;;;;;;;;;18.90;52.30;;;;;;5054458;28;19909;-76
2023/06/10 01:53:37;;;;;;;;;;;18.80;52.50;;;;;;5054461;28;19928;-76
2023/06/10 01:56:03;;;;;;;;;;;18.80;52.90;;;;;;5054274;28;20008;-78
2023/06/10 01:58:28;;;;;;;;;;;18.80;52.80;;;;;;5054142;28;19972;-75
2023/06/10 02:00:53;;;;;;;;;;;18.70;52.70;;;;;;5054120;28;19913;-76
2023/06/10 02:03:19;;;;;;;;;;;18.70;52.60;;;;;;5054318;28;19917;-77
2023/06/10 02:05:45;;;;;;;;;;;18.70;52.80;;;;;;5054064;28;19913;-76
2023/06/10 02:08:10;;;;;;;;;;;18.60;52.90;;;;;;5053701;28;20280;-77
2023/06/10 02:10:35;;;;;;;;;;;18.60;52.80;;;;;;5054140;28;19909;-77
2023/06/10 02:13:01;;;;;;;;;;;18.50;52.80;;;;;;5054104;28;19921;-76
2023/06/10 02:15:26;;;;;;;;;;;18.40;52.70;;;;;;5054052;28;19909;-77
2023/06/10 02:17:52;;;;;;;;;;;18.40;52.70;;;;;;5053869;28;19974;-77
2023/06/10 02:20:17;;;;;;;;;;;18.30;52.80;;;;;;5053849;28;19909;-77
2023/06/10 02:22:43;;;;;;;;;;;18.30;52.90;;;;;;5043120;28;20009;-77
2023/06/10 02:25:08;;;;;;;;;;;18.30;52.90;;;;;;5067271;28;20356;-77
2023/06/10 02:27:34;;;;;;;;;;;18.20;52.90;;;;;;5053657;28;19948;-76
2023/06/10 02:30:00;;;;;;;;;;;18.20;52.90;;;;;;5053618;28;19975;-77
2023/06/10 02:32:25;;;;;;;;;;;18.10;52.90;;;;;;5053596;28;19919;-77
2023/06/10 02:34:51;;;;;;;;;;;18.00;53.30;;;;;;5053396;28;20341;-76
2023/06/10 02:37:16;;;;;;;;;;;18.00;53.40;;;;;;5069849;28;19912;-77
2023/06/10 02:39:42;;;;;;;;;;;18.00;53.70;;;;;;5073902;28;20011;-76
2023/06/10 02:42:07;;;;;;;;;;;18.00;54.70;;;;;;5073517;28;20332;-76
2023/06/10 02:44:33;;;;;;;;;;;17.90;55.00;;;;;;5073819;28;19917;-77
2023/06/10 02:46:58;;;;;;;;;;;18.00;55.60;;;;;;5073209;28;19919;-74
2023/06/10 02:49:24;;;;;;;;;;;17.90;55.80;;;;;;5073824;28;19917;-74
2023/06/10 02:51:53;;;;;;;;;;;17.90;55.50;;;;;;5073476;28;19909;-77
2023/06/10 02:54:19;;;;;;;;;;;18.00;55.40;;;;;;5053840;28;21193;-74
2023/06/10 02:56:45;;;;;;;;;;;17.90;55.50;;;;;;5053189;28;19917;-76
2023/06/10 02:59:11;;;;;;;;;;;17.90;55.20;;;;;;5053367;28;20372;-75
2023/06/10 03:01:37;;;;;;;;;;;17.90;55.00;;;;;;5053211;28;19909;-75
2023/06/10 03:04:05;;;;;;;;;;;17.90;55.10;;;;;;5053328;28;19917;-76
2023/06/10 03:06:33;;;;;;;;;;;17.90;55.50;;;;;;5053140;28;19908;-75
2023/06/10 03:08:59;;;;;;;;;;;17.90;55.60;;;;;;5052979;28;19917;-75
2023/06/10 03:11:25;;;;;;;;;;;17.90;55.40;;;;;;5053435;28;19919;-77
2023/06/10 03:13:52;;;;;;;;;;;17.90;55.10;;;;;;5053278;28;19924;-76
2023/06/10 03:16:18;;;;;;;;;;;17.90;55.00;;;;;;5053366;28;19943;-76
2023/06/10 03:18:43;;;;;;;;;;;17.90;55.10;;;;;;5053242;28;19928;-76
2023/06/10 03:21:09;;;;;;;;;;;17.90;55.00;;;;;;5052737;28;20284;-76
2023/06/10 03:23:34;;;;;;;;;;;17.90;55.00;;;;;;5067725;28;20057;-76
2023/06/10 03:26:00;;;;;;;;;;;18.00;55.10;;;;;;5073454;28;19908;-75
2023/06/10 03:28:25;;;;;;;;;;;18.00;55.30;;;;;;5073942;28;19959;-76
2023/06/10 03:30:51;;;;;;;;;;;18.20;55.40;;;;;;5073083;28;19908;-75
2023/06/10 03:33:17;;;;;;;;;;;18.30;55.40;;;;;;5073299;28;19955;-76
2023/06/10 03:35:42;;;;;;;;;;;18.50;55.50;;;;;;5069849;28;19909;-76
2023/06/10 03:38:08;;;;;;;;;;;18.60;55.60;;;;;;5051852;28;19970;-75
2023/06/10 03:40:33;;;;;;;;;;;18.90;55.60;;;;;;5053386;28;19909;-76
2023/06/10 03:42:59;;;;;;;;;;;19.10;55.60;;;;;;5053464;28;19927;-76
2023/06/10 03:45:24;;;;;;;;;;;19.30;55.50;;;;;;5052012;28;19909;-76
2023/06/10 03:47:50;;;;;;;;;;;19.50;55.40;;;;;;5052707;28;19917;-76
2023/06/10 03:50:15;;;;;;;;;;;19.70;55.30;;;;;;5053017;28;19909;-76
2023/06/10 03:52:41;;;;;;;;;;;20.00;55.00;;;;;;5052566;28;19971;-76
2023/06/10 03:55:07;;;;;;;;;;;20.20;54.70;;;;;;5049201;28;19923;-75
2023/06/10 03:57:33;;;;;;;;;;;20.50;54.50;;;;;;5052468;28;19940;-76
2023/06/10 03:59:58;;;;;;;;;;;20.70;54.30;;;;;;5052994;28;19913;-77
2023/06/10 04:02:23;;;;;;;;;;;21.00;53.80;;;;;;5052971;28;19912;-76
2023/06/10 04:04:50;;;;;;;;;;;21.20;53.50;;;;;;5052504;28;19920;-75
2023/06/10 04:07:16;;;;;;;;;;;21.50;52.90;;;;;;5052763;28;20364;-76
2023/06/10 04:09:42;;;;;;;;;;;21.70;52.30;;;;;;5052409;28;19913;-77
2023/06/10 04:12:10;;;;;;;;;;;22.00;51.70;;;;;;5052809;28;20372;-76
2023/06/10 04:14:38;;;;;;;;;;;22.20;51.20;;;;;;5052186;28;20264;-76
2023/06/10 04:17:07;;;;;;;;;;;22.40;50.70;;;;;;5051695;28;19924;-73
2023/06/10 04:19:32;;;;;;;;;;;22.70;50.20;;;;;;5052775;28;19924;-76
2023/06/10 04:21:58;;;;;;;;;;;23.00;49.20;;;;;;5052547;28;19909;-76
2023/06/10 04:24:23;;;;;;;;;;;23.30;48.20;;;;;;5052909;28;19917;-76
2023/06/10 04:26:48;;;;;;;;;;;23.50;47.90;;;;;;5052437;28;19942;-76
2023/06/10 04:29:14;;;;;;;;;;;23.80;47.20;;;;;;5052345;28;19956;-76
2023/06/10 04:31:39;;;;;;;;;;;24.10;46.60;;;;;;5051818;28;19913;-76
2023/06/10 04:34:05;;;;;;;;;;;24.40;45.70;;;;;;5052454;28;19927;-74
2023/06/10 04:36:30;;;;;;;;;;;24.60;45.20;;;;;;5052548;28;19920;-76
2023/06/10 04:38:56;;;;;;;;;;;24.80;44.40;;;;;;5052049;28;20451;-74
2023/06/10 04:41:22;;;;;;;;;;;25.10;43.80;;;;;;5052179;28;19909;-74
2023/06/10 04:43:47;;;;;;;;;;;25.30;43.60;;;;;;5033367;28;19917;-74
2023/06/10 04:46:13;;;;;;;;;;;25.70;42.70;;;;;;5014530;28;19909;-74
2023/06/10 04:48:39;;;;;;;;;;;25.90;42.20;;;;;;5031673;28;19917;-75
2023/06/10 04:51:05;;;;;;;;;;;26.20;41.50;;;;;;5031815;28;19989;-75
2023/06/10 04:53:31;;;;;;;;;;;26.40;40.60;;;;;;5032240;28;19967;-76
2023/06/10 04:55:57;;;;;;;;;;;26.70;40.80;;;;;;5050344;28;19920;-75
2023/06/10 04:58:23;;;;;;;;;;;26.90;39.70;;;;;;5051848;28;19927;-75
2023/06/10 05:00:48;;;;;;;;;;;27.00;38.90;;;;;;5051876;28;20420;-75
2023/06/10 05:03:14;;;;;;;;;;;27.30;39.10;;;;;;5050384;28;19955;-75
2023/06/10 05:05:39;;;;;;;;;;;27.60;38.00;;;;;;5051167;28;19920;-75
2023/06/10 05:08:05;;;;;;;;;;;27.80;37.70;;;;;;5051856;28;19974;-75
2023/06/10 05:10:31;;;;;;;;;;;28.10;37.40;;;;;;5046553;28;19913;-75
2023/06/10 05:12:57;;;;;;;;;;;28.40;36.80;;;;;;5058472;28;19970;-75
2023/06/10 05:15:23;;;;;;;;;;;28.60;36.10;;;;;;5037231;28;20347;-75
2023/06/10 05:17:48;;;;;;;;;;;28.80;35.90;;;;;;5033652;28;19932;-75
2023/06/10 05:20:15;;;;;;;;;;;29.10;35.50;;;;;;5051274;28;19963;-75
2023/06/10 05:22:40;;;;;;;;;;;29.30;35.00;;;;;;5046365;28;19986;-75
2023/06/10 05:25:06;;;;;;;;;;;29.60;34.30;;;;;;5031475;28;19921;-75
2023/06/10 05:27:32;;;;;;;;;;;29.80;34.10;;;;;;5036990;28;19944;-75
2023/06/10 05:29:57;;;;;;;;;;;30.00;33.80;;;;;;5046576;28;19964;-75
2023/06/10 05:32:22;;;;;;;;;;;30.20;33.60;;;;;;5044844;28;19962;-76
2023/06/10 05:34:48;;;;;;;;;;;30.40;32.90;;;;;;5044500;28;20281;-76
2023/06/10 05:37:14;;;;;;;;;;;30.60;32.30;;;;;;5049148;28;20288;-76
2023/06/10 05:39:40;;;;;;;;;;;30.70;32.30;;;;;;5041798;28;19928;-76
2023/06/10 05:42:06;;;;;;;;;;;31.00;32.00;;;;;;5039987;28;20285;-76
2023/06/10 05:44:32;;;;;;;;;;;31.20;31.80;;;;;;5038081;28;20381;-76
2023/06/10 05:46:57;;;;;;;;;;;31.40;31.50;;;;;;5040899;28;19951;-76
2023/06/10 05:49:23;;;;;;;;;;;31.60;31.30;;;;;;5055871;28;20075;-77
2023/06/10 05:51:48;;;;;;;;;;;31.80;30.90;;;;;;5055004;28;19947;-75
2023/06/10 05:54:13;;;;;;;;;;;32.10;31.10;;;;;;5055100;28;20272;-75
2023/06/10 05:56:39;;;;;;;;;;;32.30;30.20;;;;;;5053409;28;19912;-75
2023/06/10 05:59:04;;;;;;;;;;;32.50;29.90;;;;;;5055211;28;20181;-75
2023/06/10 06:01:30;;;;;;;;;;;32.70;29.70;;;;;;5054535;28;19909;-75
2023/06/10 06:03:55;;;;;;;;;;;32.80;29.20;;;;;;5052763;28;19923;-75
2023/06/10 06:06:21;;;;;;;;;;;32.90;29.00;;;;;;5054215;28;20007;-75
2023/06/10 06:08:49;;;;;;;;;;;33.10;29.10;;;;;;5054898;28;19917;-75
2023/06/10 06:11:14;;;;;;;;;;;33.30;28.50;;;;;;5054586;28;20392;-75
2023/06/10 06:13:41;;;;;;;;;;;33.40;28.60;;;;;;5054350;28;19920;-75
2023/06/10 06:16:06;;;;;;;;;;;33.70;28.10;;;;;;5054153;28;20333;-75
2023/06/10 06:18:32;;;;;;;;;;;33.80;28.00;;;;;;5054278;28;20007;-76
2023/06/10 06:20:57;;;;;;;;;;;34.10;28.00;;;;;;5053140;28;20376;-75
2023/06/10 06:23:23;;;;;;;;;;;34.30;27.40;;;;;;5066850;28;19913;-74
2023/06/10 06:25:48;;;;;;;;;;;34.30;27.00;;;;;;5074096;28;19916;-74
2023/06/10 06:28:13;;;;;;;;;;;34.40;26.80;;;;;;5074183;28;20011;-74
2023/06/10 06:30:39;;;;;;;;;;;34.50;26.90;;;;;;5052207;28;20369;-74
2023/06/10 06:33:04;;;;;;;;;;;34.70;27.00;;;;;;5048908;28;19971;-75
2023/06/10 06:35:31;;;;;;;;;;;35.00;26.80;;;;;;5020046;28;19917;-75
2023/06/10 06:37:58;;;;;;;;;;;35.20;26.60;;;;;;5072610;28;19920;-75
2023/06/10 06:40:24;;;;;;;;;;;35.60;26.10;;;;;;5073808;28;19909;-75
2023/06/10 06:42:49;;;;;;;;;;;35.80;25.90;;;;;;5073752;28;19924;-76
2023/06/10 06:45:15;;;;;;;;;;;36.10;25.70;;;;;;5073718;28;20368;-75
2023/06/10 06:47:40;;;;;;;;;;;36.40;25.30;;;;;;5056014;28;19948;-75
2023/06/10 06:50:06;;;;;;;;;;;36.70;24.80;;;;;;5053829;28;19908;-75
2023/06/10 06:52:31;;;;;;;;;;;36.80;24.20;;;;;;5053874;28;19909;-76
2023/06/10 06:54:57;;;;;;;;;;;36.90;23.90;;;;;;5053437;28;20280;-76
2023/06/10 06:57:23;;;;;;;;;;;37.00;24.00;;;;;;5053553;28;20294;-75
2023/06/10 06:59:48;;;;;;;;;;;37.20;24.10;;;;;;5053604;28;19913;-75
2023/06/10 07:02:14;;;;;;;;;;;37.50;23.90;;;;;;5053672;28;19908;-74
2023/06/10 07:04:40;;;;;;;;;;;37.70;23.80;;;;;;5052712;28;19921;-75
2023/06/10 07:07:07;;;;;;;;;;;38.00;23.80;;;;;;5015964;28;20284;-75
2023/06/10 07:09:32;;;;;;;;;;;38.20;23.40;;;;;;5033749;28;19917;-75
2023/06/10 07:11:58;;;;;;;;;;;38.40;23.20;;;;;;5033397;28;19916;-76
2023/06/10 07:14:23;;;;;;;;;;;38.50;23.10;;;;;;5034141;28;19917;-76
2023/06/10 07:16:49;;;;;;;;;;;38.80;22.90;;;;;;5045298;28;19921;-76
2023/06/10 07:19:15;;;;;;;;;;;39.00;22.70;;;;;;5053418;28;19970;-75
2023/06/10 07:21:40;;;;;;;;;;;39.20;22.50;;;;;;5047743;28;19919;-75
2023/06/10 07:24:06;;;;;;;;;;;39.30;22.20;;;;;;5033007;28;20354;-76
2023/06/10 07:26:31;;;;;;;;;;;39.40;21.70;;;;;;5033007;28;19909;-74
2023/06/10 07:28:57;;;;;;;;;;;39.40;21.80;;;;;;5032670;28;19956;-74
2023/06/10 07:31:23;;;;;;;;;;;39.50;21.70;;;;;;5050312;28;19913;-75
2023/06/10 07:33:48;;;;;;;;;;;39.50;21.40;;;;;;5050321;28;19917;-75
2023/06/10 07:36:14;;;;;;;;;;;39.40;21.30;;;;;;5051948;28;19928;-75
2023/06/10 07:38:42;;;;;;;;;;;39.30;21.40;;;;;;5052164;28;20015;-75
2023/06/10 07:41:07;;;;;;;;;;;39.30;21.50;;;;;;5051575;28;19909;-75
2023/06/10 07:43:33;;;;;;;;;;;39.40;21.50;;;;;;5051394;28;20288;-75
2023/06/10 07:45:59;;;;;;;;;;;39.40;21.70;;;;;;5051757;28;19908;-75
2023/06/10 07:48:24;;;;;;;;;;;39.50;21.40;;;;;;5049877;28;19917;-75
2023/06/10 07:50:51;;;;;;;;;;;39.40;21.60;;;;;;5050693;28;19913;-75
2023/06/10 07:53:17;;;;;;;;;;;39.30;21.10;;;;;;5049050;28;20369;-74
2023/06/10 07:55:42;;;;;;;;;;;39.20;21.30;;;;;;5050475;28;19913;-75
2023/06/10 07:58:07;;;;;;;;;;;39.10;21.50;;;;;;5051107;28;19986;-74
2023/06/10 08:00:33;;;;;;;;;;;39.20;21.60;;;;;;5052642;28;19913;-74
2023/06/10 08:02:58;;;;;;;;;;;39.30;21.60;;;;;;5050777;28;19923;-74
2023/06/10 08:05:24;;;;;;;;;;;39.30;21.60;;;;;;5050669;28;19909;-75
2023/06/10 08:07:49;;;;;;;;;;;39.40;21.70;;;;;;5051666;28;19917;-75
2023/06/10 08:10:15;;;;;;;;;;;39.70;21.30;;;;;;5051224;28;19912;-75
2023/06/10 08:12:40;;;;;;;;;;;39.50;21.10;;;;;;5051215;28;19931;-75
2023/06/10 08:15:06;;;;;;;;;;;39.40;21.50;;;;;;5051246;28;19999;-75
2023/06/10 08:17:31;;;;;;;;;;;39.50;21.50;;;;;;5051164;28;19913;-75
2023/06/10 08:19:57;;;;;;;;;;;39.60;21.60;;;;;;5050552;28;19975;-75
2023/06/10 08:22:22;;;;;;;;;;;39.70;21.50;;;;;;5050930;28;20312;-75
2023/06/10 08:24:48;;;;;;;;;;;39.90;21.40;;;;;;5031467;28;19965;-75
2023/06/10 08:27:13;;;;;;;;;;;39.90;21.50;;;;;;5050228;28;19987;-75
2023/06/10 08:29:39;;;;;;;;;;;40.20;21.30;;;;;;5049433;28;19935;-75
2023/06/10 08:32:05;;;;;;;;;;;40.30;21.00;;;;;;5050748;28;19917;-75
2023/06/10 08:34:30;;;;;;;;;;;40.30;21.00;;;;;;5050640;28;20632;-75
2023/06/10 08:36:55;;;;;;;;;;;40.40;20.90;;;;;;5055627;28;19917;-75
2023/06/10 08:39:22;;;;;;;;;;;40.50;20.70;;;;;;5049573;28;19917;-75
2023/06/10 08:42:06;;;;;;;;;;;40.50;20.20;;;;;;5050909;28;20331;-75
2023/06/10 08:44:32;;;;;;;;;;;40.30;20.10;;;;;;5047816;28;19921;-75
2023/06/10 08:46:59;;;;;;;;;;;40.50;20.30;;;;;;5050951;28;19909;-76
2023/06/10 08:49:25;;;;;;;;;;;40.50;20.10;;;;;;5049221;28;20273;-74
2023/06/10 08:51:54;;;;;;;;;;;40.50;20.00;;;;;;5032016;28;19917;-74
2023/06/10 08:54:21;;;;;;;;;;;40.50;19.90;;;;;;5049372;28;19947;-74
2023/06/10 08:56:49;;;;;;;;;;;40.60;19.60;;;;;;5050623;28;20283;-76
2023/06/10 08:59:16;;;;;;;;;;;40.70;19.20;;;;;;5049568;28;20276;-76
2023/06/10 09:01:42;;;;;;;;;;;40.80;19.50;;;;;;5054205;28;19908;-76
2023/06/10 09:04:07;;;;;;;;;;;40.80;19.50;;;;;;5037173;28;19917;-76
2023/06/10 09:06:33;;;;;;;;;;;40.80;19.20;;;;;;5045189;28;19924;-76
2023/06/10 09:09:00;;;;;;;;;;;40.80;19.00;;;;;;5031525;28;20008;-77
2023/06/10 09:11:25;;;;;;;;;;;40.80;19.10;;;;;;5050723;28;20026;-77
2023/06/10 09:13:51;;;;;;;;;;;40.70;19.10;;;;;;5049373;28;19917;-77
2023/06/10 09:16:16;;;;;;;;;;;40.80;19.50;;;;;;5049026;28;19912;-76
2023/06/10 09:18:42;;;;;;;;;;;41.00;19.30;;;;;;5052902;28;20426;-77
2023/06/10 09:21:08;;;;;;;;;;;40.80;19.90;;;;;;5056829;28;19924;-77
2023/06/10 09:23:34;;;;;;;;;;;40.70;20.10;;;;;;5046338;28;19924;-76
2023/06/10 09:25:59;;;;;;;;;;;40.60;20.10;;;;;;5045861;28;20054;-77
2023/06/10 09:28:25;;;;;;;;;;;40.40;19.90;;;;;;5068135;28;20515;-77
2023/06/10 09:31:00;;;;;;;;;;;40.20;20.30;;;;;;5033973;28;19913;-77
2023/06/10 09:33:26;;;;;;;;;;;40.30;20.70;;;;;;5052756;28;19921;-78
2023/06/10 09:35:52;;;;;;;;;;;40.30;20.70;;;;;;5044889;28;20444;-77
2023/06/10 09:38:21;;;;;;;;;;;40.30;21.00;;;;;;5038446;28;19929;-75
2023/06/10 09:40:53;;;;;;;;;;;40.20;20.70;;;;;;5039248;28;19913;-76
2023/06/10 09:43:19;;;;;;;;;;;40.20;21.10;;;;;;5035415;28;20377;-76
2023/06/10 09:45:47;;;;;;;;;;;40.20;21.10;;;;;;5050172;28;19995;-75
2023/06/10 09:48:13;;;;;;;;;;;40.40;20.90;;;;;;5046909;28;19921;-75
2023/06/10 09:50:41;;;;;;;;;;;40.50;20.80;;;;;;5053340;28;19920;-75
2023/06/10 09:53:07;;;;;;;;;;;40.70;20.80;;;;;;5054337;28;19920;-76
2023/06/10 09:55:33;;;;;;;;;;;40.80;19.60;;;;;;5053270;28;19913;-76
2023/06/10 09:57:58;;;;;;;;;;;40.80;19.40;;;;;;5054377;28;19921;-76
2023/06/10 10:00:25;;;;;;;;;;;40.90;19.00;;;;;;5052910;28;19913;-75
2023/06/10 10:02:52;;;;;;;;;;;40.60;19.20;;;;;;5039102;28;20376;-76
2023/06/10 10:05:18;;;;;;;;;;;40.40;19.30;;;;;;5052897;28;19917;-76
2023/06/10 10:07:44;;;;;;;;;;;40.30;19.30;;;;;;5052586;28;19916;-76
2023/06/10 10:10:10;;;;;;;;;;;40.30;19.60;;;;;;5035733;28;20319;-75
2023/06/10 10:12:37;;;;;;;;;;;40.30;19.80;;;;;;5050807;28;19921;-76
2023/06/10 10:15:03;;;;;;;;;;;40.30;19.90;;;;;;5051749;28;19952;-74
2023/06/10 10:17:29;;;;;;;;;;;40.30;19.70;;;;;;5048153;28;20291;-74
2023/06/10 10:19:59;;;;;;;;;;;40.20;19.70;;;;;;5049815;28;19924;-75
2023/06/10 10:22:26;;;;;;;;;;;40.10;19.50;;;;;;5052029;28;19996;-77
2023/06/10 10:24:53;;;;;;;;;;;40.00;19.80;;;;;;5049273;28;19956;-77
2023/06/10 10:27:27;;;;;;;;;;;40.10;19.90;;;;;;5035542;28;19912;-77
2023/06/10 10:29:53;;;;;;;;;;;40.10;19.30;;;;;;5049255;28;20015;-77
2023/06/10 10:32:21;;;;;;;;;;;40.00;19.50;;;;;;5053015;28;19960;-77
2023/06/10 10:34:54;;;;;;;;;;;39.80;19.40;;;;;;5053499;28;19971;-77
2023/06/10 10:37:20;;;;;;;;;;;39.80;19.90;;;;;;5054293;28;20407;-77
2023/06/10 10:39:45;;;;;;;;;;;39.80;20.00;;;;;;5039805;28;19909;-76
2023/06/10 10:42:12;;;;;;;;;;;39.80;19.80;;;;;;5055367;28;19921;-79
2023/06/10 10:44:38;;;;;;;;;;;39.80;19.80;;;;;;5053854;28;19966;-76
2023/06/10 10:47:04;;;;;;;;;;;40.10;20.00;;;;;;5050812;28;19921;-78
2023/06/10 10:49:30;;;;;;;;;;;40.20;20.40;;;;;;5048221;28;19936;-77
2023/06/10 10:51:59;;;;;;;;;;;40.20;20.80;;;;;;5050655;28;19913;-77
2023/06/10 10:54:28;;;;;;;;;;;40.30;20.70;;;;;;5034131;28;19921;-76
2023/06/10 10:57:10;;;;;;;;;;;40.40;20.80;;;;;;5051223;28;19909;-76
2023/06/10 10:59:48;;;;;;;;;;;40.40;20.50;;;;;;5046379;28;20292;-77
2023/06/10 11:02:32;;;;;;;;;;;40.30;20.20;;;;;;5053124;28;19958;-77
2023/06/10 11:04:57;;;;;;;;;;;40.10;20.10;;;;;;5052688;28;19920;-76
2023/06/10 11:07:24;;;;;;;;;;;40.00;19.90;;;;;;5051982;28;19912;-77
2023/06/10 11:10:02;;;;;;;;;;;39.90;19.90;;;;;;5048151;28;19917;-77
2023/06/10 11:12:46;;;;;;;;;;;39.90;19.90;;;;;;5065690;28;19908;-77
2023/06/10 11:15:19;;;;;;;;;;;39.80;20.10;;;;;;5049885;28;19963;-77
2023/06/10 11:18:06;;;;;;;;;;;39.80;19.80;;;;;;5052615;28;19921;-77
2023/06/10 11:20:43;;;;;;;;;;;39.80;20.00;;;;;;5049788;28;19913;-77
2023/06/10 11:23:09;;;;;;;;;;;39.80;19.60;;;;;;5052456;28;19921;-77
2023/06/10 11:25:40;;;;;;;;;;;39.80;19.30;;;;;;5051557;28;20015;-77
2023/06/10 11:28:19;;;;;;;;;;;39.90;19.50;;;;;;5051236;28;20006;-76
2023/06/10 11:30:45;;;;;;;;;;;39.90;19.30;;;;;;5050347;28;19917;-76
2023/06/10 11:33:14;;;;;;;;;;;39.70;19.70;;;;;;5051857;28;19920;-77
2023/06/10 11:35:40;;;;;;;;;;;39.70;19.80;;;;;;5052416;28;20368;-77
2023/06/10 11:38:06;;;;;;;;;;;39.60;19.40;;;;;;5051168;28;19928;-76
2023/06/10 11:40:31;;;;;;;;;;;39.50;19.10;;;;;;5048972;28;19920;-76
2023/06/10 11:42:57;;;;;;;;;;;39.10;19.60;;;;;;5052129;28;19936;-76
2023/06/10 11:45:24;;;;;;;;;;;39.10;20.00;;;;;;5052336;28;20411;-77
2023/06/10 11:47:56;;;;;;;;;;;39.20;19.70;;;;;;5052558;28;19921;-78
2023/06/10 11:50:31;;;;;;;;;;;39.10;19.40;;;;;;5029180;28;20284;-78
2023/06/10 11:52:58;;;;;;;;;;;38.90;19.80;;;;;;5041764;28;19924;-77
2023/06/10 11:55:25;;;;;;;;;;;38.80;20.30;;;;;;5051529;28;19913;-78
2023/06/10 11:57:57;;;;;;;;;;;38.80;20.50;;;;;;5034176;28;19955;-78
2023/06/10 12:00:23;;;;;;;;;;;38.90;20.40;;;;;;5047551;28;19920;-78
2023/06/10 12:02:57;;;;;;;;;;;38.90;20.50;;;;;;5050744;28;20100;-78
2023/06/10 12:05:22;;;;;;;;;;;38.90;20.60;;;;;;5049993;28;19924;-77
2023/06/10 12:07:48;;;;;;;;;;;38.80;20.80;;;;;;5051231;28;20793;-77
2023/06/10 12:10:13;;;;;;;;;;;38.80;20.80;;;;;;5047034;28;19913;-77
2023/06/10 12:12:39;;;;;;;;;;;38.70;21.00;;;;;;5049618;28;20086;-77
2023/06/10 12:15:05;;;;;;;;;;;38.70;21.40;;;;;;5050412;28;19912;-77
2023/06/10 12:17:36;;;;;;;;;;;38.70;21.30;;;;;;5051422;28;19950;-77
2023/06/10 12:20:08;;;;;;;;;;;38.60;21.60;;;;;;5047907;28;19921;-77
2023/06/10 12:22:41;;;;;;;;;;;38.60;21.70;;;;;;5050499;28;19974;-77
2023/06/10 12:25:07;;;;;;;;;;;38.60;21.40;;;;;;5048423;28;20391;-76
2023/06/10 12:27:33;;;;;;;;;;;38.50;21.70;;;;;;5050069;28;19909;-77
2023/06/10 12:30:01;;;;;;;;;;;38.50;21.90;;;;;;5048132;28;19916;-77
2023/06/10 12:32:42;;;;;;;;;;;38.40;21.90;;;;;;5050544;28;19913;-77
2023/06/10 12:35:08;;;;;;;;;;;38.40;22.30;;;;;;5031877;28;19956;-77
2023/06/10 12:37:34;;;;;;;;;;;38.20;22.20;;;;;;5050418;28;19919;-76
2023/06/10 12:40:01;;;;;;;;;;;38.10;22.40;;;;;;5048182;28;19913;-77
2023/06/10 12:42:26;;;;;;;;;;;38.00;22.60;;;;;;5050411;28;19917;-76
2023/06/10 12:44:56;;;;;;;;;;;37.90;22.40;;;;;;5050060;28;20059;-75
2023/06/10 12:47:29;;;;;;;;;;;37.80;22.40;;;;;;5041498;28;19924;-75
2023/06/10 12:49:54;;;;;;;;;;;37.70;22.50;;;;;;5047670;28;20023;-76
2023/06/10 12:52:20;;;;;;;;;;;37.40;22.50;;;;;;5052241;28;20736;-76
2023/06/10 12:54:45;;;;;;;;;;;37.30;22.40;;;;;;5053413;28;19925;-76
2023/06/10 12:57:11;;;;;;;;;;;37.20;22.40;;;;;;5053136;28;20372;-76
2023/06/10 12:59:36;;;;;;;;;;;37.20;22.60;;;;;;5051694;28;19917;-76
2023/06/10 13:02:02;;;;;;;;;;;37.20;22.70;;;;;;5062238;28;20343;-76
2023/06/10 13:04:27;;;;;;;;;;;37.30;22.60;;;;;;5055896;28;19917;-76
2023/06/10 13:06:53;;;;;;;;;;;37.30;22.50;;;;;;5053514;28;20023;-76
2023/06/10 13:09:21;;;;;;;;;;;37.30;22.50;;;;;;5039806;28;19932;-77
2023/06/10 13:11:46;;;;;;;;;;;37.30;22.80;;;;;;5053536;28;19920;-76
2023/06/10 13:14:12;;;;;;;;;;;37.30;22.80;;;;;;5055265;28;19999;-75
2023/06/10 13:16:38;;;;;;;;;;;37.50;22.30;;;;;;5052448;28;20426;-75
2023/06/10 13:19:05;;;;;;;;;;;37.60;22.20;;;;;;5051204;28;20373;-76
2023/06/10 13:21:31;;;;;;;;;;;37.60;22.40;;;;;;5054411;28;19924;-77
2023/06/10 13:23:56;;;;;;;;;;;37.70;22.40;;;;;;5053998;28;19955;-77
2023/06/10 13:26:22;;;;;;;;;;;37.80;21.90;;;;;;5055747;28;19960;-77
2023/06/10 13:28:48;;;;;;;;;;;37.80;22.10;;;;;;5050434;28;20007;-75
2023/06/10 13:31:13;;;;;;;;;;;38.00;21.90;;;;;;5053687;28;20318;-75
2023/06/10 13:33:40;;;;;;;;;;;37.90;22.00;;;;;;5052114;28;19925;-75
2023/06/10 13:36:05;;;;;;;;;;;37.80;22.40;;;;;;5060526;28;20366;-76
2023/06/10 13:38:31;;;;;;;;;;;37.80;22.60;;;;;;5057148;28;19964;-75
2023/06/10 13:40:56;;;;;;;;;;;37.80;22.70;;;;;;5049528;28;19958;-75
2023/06/10 13:43:21;;;;;;;;;;;37.80;22.70;;;;;;5053680;28;19928;-72
2023/06/10 13:45:47;;;;;;;;;;;37.60;22.50;;;;;;5054251;28;19962;-72
2023/06/10 13:48:12;;;;;;;;;;;37.30;22.80;;;;;;5051464;28;19994;-73
2023/06/10 13:50:38;;;;;;;;;;;37.30;23.30;;;;;;5053275;28;19909;-75
2023/06/10 13:53:03;;;;;;;;;;;37.30;23.20;;;;;;5053547;28;19924;-75
2023/06/10 13:55:29;;;;;;;;;;;37.20;23.40;;;;;;5036844;28;20364;-76
2023/06/10 13:57:54;;;;;;;;;;;37.30;23.30;;;;;;5034567;28;20214;-77
2023/06/10 14:00:20;;;;;;;;;;;37.30;23.40;;;;;;5052672;28;19999;-77
2023/06/10 14:02:46;;;;;;;;;;;37.30;23.20;;;;;;5056588;28;20288;-76
2023/06/10 14:05:11;;;;;;;;;;;37.10;23.20;;;;;;5034485;28;20361;-76
2023/06/10 14:07:37;;;;;;;;;;;36.90;23.30;;;;;;5050705;28;20016;-77
2023/06/10 14:10:03;;;;;;;;;;;36.70;23.40;;;;;;5051482;28;19980;-77
2023/06/10 14:12:28;;;;;;;;;;;36.50;23.60;;;;;;5053943;28;19909;-77